Fort Loudon, Pennsylvania
Current Conditions -  °F | °C
As of 7:20 AM on Friday 28 Nov 2014 (Local Time) from KHGR Reporting Station
Light Snow Light Snow  
Wind Chill: 21°   Ceiling: 3300
Heat Index: 30°   Visibility: 3mi
Dew Point: 26°   Wind: 12mph
Humidity: 85%   Direction: 330°NNW
Pressure: 30.25"   Gusts: NA
Location:  39.91°N, 77.9°W
Report Text: KHGR 281220Z 33010KT 3SM -SN BR SCT014 SCT025 BKN033 M01/M03 A3025 RMK AO2 SNB00 P0000 T10111033 $
Loading
Personal Weather Stations






























Interactive Weather Map New forecast layout! Learn more

10-Day Weather Forecast

Advertisements
Track Severe Weather on mobile